Flight Track Log - Related Links

Times and Time Zones

All times are in EDT time to prevent confusion due to time zone crossing. See the TAM3516 flight status page for this flight to view local times or setup timezone preferences in your user account.

Time Position Orientation Groundspeed Altitude Reporting Facility
EDT Latitude Longitude Course Direction KTS MPH feet Rate Location/Type
Fri 04:27:09 PM -23.4290 -46.4630 84° East 145 167  Level FlightAware ADS-B
Fri 04:27:39 PM -23.4350 -46.4880 255° West 176 203 2,900 4,440 Climbing FlightAware ADS-B
Fri 04:27:59 PM -23.4400 -46.5050 252° West 176 203 3,700 2,100 Climbing FlightAware ADS-B
Fri 04:28:19 PM -23.4440 -46.5230 256° West 181 208 4,300 1,650 Climbing FlightAware ADS-B
Fri 04:28:39 PM -23.4490 -46.5400 252° West 183 211 4,800 1,714 Climbing FlightAware ADS-B
Fri 04:28:54 PM -23.4530 -46.5540 253° West 185 213 5,300 1,636 Climbing FlightAware ADS-B
Fri 04:29:01 PM -23.4560 -46.5580 231° Southwest 182 209 5,400 1,200 Climbing FlightAware ADS-B
Fri 04:29:09 PM -23.4630 -46.5620 208° Southwest 195 224 5,600 923 Climbing FlightAware ADS-B
Fri 04:29:14 PM -23.4680 -46.5640 200° South 195 224 5,600 600 Level FlightAware ADS-B
Fri 04:29:19 PM -23.4720 -46.5640 180° South 209 241 5,700 720 Climbing FlightAware ADS-B
Fri 04:29:39 PM -23.4910 -46.5560 159° South 228 262 5,900 600 Climbing FlightAware ADS-B
Fri 04:29:49 PM -23.4980 -46.5470 130° Southeast 234 269 6,000 600 Climbing FlightAware ADS-B
Fri 04:29:59 PM -23.5030 -46.5350 114° Southeast 252 290 6,100 1,000 Climbing FlightAware ADS-B
Fri 04:30:19 PM -23.5090 -46.5090 104° East 275 316 6,500 1,650 Climbing FlightAware ADS-B
Fri 04:30:39 PM -23.5100 -46.4810 92° East 285 328 7,200 1,731 Climbing FlightAware ADS-B
Fri 04:31:11 PM -23.5020 -46.4360 79° East 285 328 8,000 1,021 Climbing FlightAware ADS-B
Fri 04:31:26 PM -23.4920 -46.4170 60° Northeast 283 326 8,000  Level FlightAware ADS-B
Fri 04:31:44 PM -23.4790 -46.3960 56° Northeast 282 325 8,000 308 Level FlightAware ADS-B
Fri 04:32:05 PM -23.4650 -46.3720 58° Northeast 283 326 8,200 1,500 Climbing FlightAware ADS-B
Fri 04:32:24 PM -23.4510 -46.3480 58° Northeast 285 328 9,000 2,556 Climbing FlightAware ADS-B
Fri 04:32:59 PM -23.4270 -46.3050 59° Northeast 286 329 10,500 2,057 Climbing FlightAware ADS-B
Fri 04:33:34 PM -23.4020 -46.2600 59° Northeast 313 360 11,400 1,560 Climbing FlightAware ADS-B
Fri 04:33:49 PM -23.3870 -46.2430 46° Northeast 320 368 11,800 1,935 Climbing FlightAware ADS-B
Fri 04:34:05 PM -23.3660 -46.2330 24° Northeast 312 359 12,400 2,609 Climbing FlightAware ADS-B
Fri 04:34:35 PM -23.3230 -46.2240 11° North 297 342 13,800 1,938 Climbing FlightAware ADS-B
Fri 04:35:10 PM -23.2730 -46.2130 11° North 327 376 14,500 930 Climbing FlightAware ADS-B
Fri 04:35:46 PM -23.2180 -46.2010 11° North 349 402 14,900 1,360 Climbing FlightAware ADS-B
Fri 04:36:25 PM -23.1520 -46.1860 12° North 361 415 16,200 1,913 Climbing FlightAware ADS-B
Fri 04:36:55 PM -23.1020 -46.1740 12° North 366 421 17,100 1,569 Climbing FlightAware ADS-B
Fri 04:37:30 PM -23.0450 -46.1540 18° North 373 429 17,900 1,360 Climbing FlightAware ADS-B
Fri 04:38:10 PM -22.9760 -46.1270 20° North 394 453 18,800 1,600 Climbing FlightAware ADS-B
Fri 04:38:45 PM -22.9160 -46.1040 19° North 395 455 19,900 1,569 Climbing FlightAware ADS-B
Fri 04:39:15 PM -22.8630 -46.0840 19° North 394 453 20,500 1,385 Climbing FlightAware ADS-B
Fri 04:39:50 PM -22.8030 -46.0610 19° North 406 467 21,400 1,543 Climbing FlightAware ADS-B
Fri 04:40:25 PM -22.7380 -46.0360 20° North 409 471 22,300 1,371 Climbing FlightAware ADS-B
Fri 04:41:00 PM -22.6770 -46.0130 19° North 408 470 23,000 1,183 Climbing FlightAware ADS-B
Fri 04:41:36 PM -22.6120 -45.9880 20° North 423 487 23,700 1,075 Climbing FlightAware ADS-B
Fri 04:42:07 PM -22.5570 -45.9670 19° North 428 493 24,200 957 Climbing FlightAware ADS-B
Fri 04:42:45 PM -22.4800 -45.9380 19° North 431 496 24,800 923 Climbing FlightAware ADS-B
Fri 04:43:25 PM -22.4030 -45.9080 20° North 441 507 25,400 960 Climbing FlightAware ADS-B
Fri 04:44:00 PM -22.3320 -45.8810 19° North 448 516 26,000 1,015 Climbing FlightAware ADS-B
Fri 04:44:30 PM -22.2740 -45.8590 19° North 459 528 26,500 1,114 Climbing FlightAware ADS-B
Fri 04:45:10 PM -22.1920 -45.8280 19° North 462 532 27,300 1,114 Climbing FlightAware ADS-B
Fri 04:45:40 PM -22.1330 -45.8050 20° North 458 527 27,800 1,015 Climbing FlightAware ADS-B
Fri 04:46:15 PM -22.0590 -45.7770 19° North 460 529 28,400 960 Climbing FlightAware ADS-B
Fri 04:46:55 PM -21.9770 -45.7470 19° North 465 535 29,000 880 Climbing FlightAware ADS-B
Fri 04:47:30 PM -21.9040 -45.7190 20° North 477 549 29,500 738 Climbing FlightAware ADS-B
Fri 04:48:00 PM -21.8430 -45.6960 19° North 481 554 29,800 1,164 Climbing FlightAware ADS-B
Fri 04:48:37 PM -21.7670 -45.6670 20° North 464 534 30,800 1,200 Climbing FlightAware ADS-B
Fri 04:49:10 PM -21.6970 -45.6410 19° North 476 548 31,200 794 Climbing FlightAware ADS-B
Fri 04:49:45 PM -21.6240 -45.6120 20° North 479 551 31,700 960 Climbing FlightAware ADS-B
Fri 04:50:00 PM -21.5940 -45.5930 30° Northeast 475 547 32,000 1,100 Climbing FlightAware ADS-B
Fri 04:50:45 PM -21.5150 -45.5310 36° Northeast 480 552 32,800 1,120 Climbing FlightAware ADS-B
Fri 04:51:15 PM -21.4600 -45.4880 36° Northeast 477 549 33,400 1,029 Climbing FlightAware ADS-B
Fri 04:51:55 PM -21.3870 -45.4320 36° Northeast 474 545 34,000 943 Climbing FlightAware ADS-B
Fri 04:52:25 PM -21.3350 -45.3920 36° Northeast 472 543 34,500 923 Climbing FlightAware ADS-B
Fri 04:53:00 PM -21.2750 -45.3460 36° Northeast 464 534 35,000 400 Climbing FlightAware ADS-B
Fri 04:53:40 PM -21.2010 -45.2900 35° Northeast 462 532 35,000  Level FlightAware ADS-B
Fri 04:54:14 PM -21.1430 -45.2450 36° Northeast 469 540 35,000  Level FlightAware ADS-B
Fri 04:54:50 PM -21.0850 -45.2010 35° Northeast 468 539 35,000  Level FlightAware ADS-B
Fri 04:55:24 PM -21.0190 -45.1510 35° Northeast 467 537 35,000  Level FlightAware ADS-B
Fri 04:56:00 PM -20.9570 -45.1030 36° Northeast 464 534 35,000  Level FlightAware ADS-B
Fri 04:56:34 PM -20.8970 -45.0570 36° Northeast 464 534 35,000  Level FlightAware ADS-B
Fri 04:57:10 PM -20.8370 -45.0120 35° Northeast 469 540 35,000  Level FlightAware ADS-B
Fri 04:57:44 PM -20.7720 -44.9620 36° Northeast 470 541 35,000  Level FlightAware ADS-B
Fri 04:58:20 PM -20.7140 -44.9180 35° Northeast 473 544 35,000  Level FlightAware ADS-B
Fri 04:58:54 PM -20.6480 -44.8690 35° Northeast 473 544 35,000  Level FlightAware ADS-B
Fri 04:59:30 PM -20.5840 -44.8200 36° Northeast 474 545 35,000  Level FlightAware ADS-B
Fri 05:00:04 PM -20.5230 -44.7740 35° Northeast 474 545 35,000  Level FlightAware ADS-B
Fri 05:00:40 PM -20.4570 -44.7240 35° Northeast 474 545 35,000  Level FlightAware ADS-B
Fri 05:01:15 PM -20.3930 -44.6760 35° Northeast 474 545 35,000  Level FlightAware ADS-B
Fri 05:01:50 PM -20.3320 -44.6290 36° Northeast 474 545 35,000  Level FlightAware ADS-B
Fri 05:02:30 PM -20.2590 -44.5740 35° Northeast 475 547 35,000  Level FlightAware ADS-B
Fri 05:03:05 PM -20.1960 -44.5270 35° Northeast 477 549 35,000  Level FlightAware ADS-B
Fri 05:03:45 PM -20.1240 -44.4720 36° Northeast 478 550 35,000  Level FlightAware ADS-B
Fri 05:04:15 PM -20.0700 -44.4320 35° Northeast 481 554 35,000  Level FlightAware ADS-B
Fri 05:04:50 PM -20.0060 -44.3840 35° Northeast 482 555 35,000  Level FlightAware ADS-B
Fri 05:05:25 PM -19.9420 -44.3360 35° Northeast 483 556 35,000  Level FlightAware ADS-B
Fri 05:06:00 PM -19.8780 -44.2880 35° Northeast 484 557 35,000  Level FlightAware ADS-B
Fri 05:06:35 PM -19.8140 -44.2400 35° Northeast 484 557 35,000  Level FlightAware ADS-B
Fri 05:07:11 PM -19.7490 -44.1920 35° Northeast 483 556 35,000  Level FlightAware ADS-B
Fri 05:07:45 PM -19.6890 -44.1470 35° Northeast 482 555 35,000  Level FlightAware ADS-B
Fri 05:08:20 PM -19.6210 -44.0970 35° Northeast 481 554 35,000  Level FlightAware ADS-B
Fri 05:08:55 PM -19.5580 -44.0530 33° Northeast 479 551 35,000  Level FlightAware ADS-B
Fri 05:09:29 PM -19.4910 -44.0170 27° Northeast 474 545 35,000  Level FlightAware ADS-B
Fri 05:10:04 PM -19.4220 -43.9840 24° Northeast 473 544 35,000  Level FlightAware ADS-B
Fri 05:10:44 PM -19.3400 -43.9440 25° Northeast 472 543 35,000  Level FlightAware ADS-B
Fri 05:11:14 PM -19.2800 -43.9150 25° Northeast 473 544 35,000 -91 Level FlightAware ADS-B
Fri 05:11:50 PM -19.2110 -43.8820 24° Northeast 474 545 34,900  Descending FlightAware ADS-B
Fri 05:12:29 PM -19.1330 -43.8440 25° Northeast 477 549 35,000 87 Climbing FlightAware ADS-B
Fri 05:12:59 PM -19.0690 -43.8140 24° Northeast 479 551 35,000  Level FlightAware ADS-B
Fri 05:13:34 PM -18.9980 -43.7800 24° Northeast 481 554 35,000  Level FlightAware ADS-B
Fri 05:14:09 PM -18.9280 -43.7460 25° Northeast 481 554 35,000  Level FlightAware ADS-B
Fri 05:14:44 PM -18.8600 -43.7140 24° Northeast 478 550 35,000  Level FlightAware ADS-B
Fri 05:15:24 PM -18.7780 -43.6740 25° Northeast 477 549 35,000  Level FlightAware ADS-B
Fri 05:15:59 PM -18.7060 -43.6400 24° Northeast 476 548 35,000  Level FlightAware ADS-B
Fri 05:16:34 PM -18.6360 -43.6070 24° Northeast 474 545 35,000  Level FlightAware ADS-B
Fri 05:17:04 PM -18.5750 -43.5780 24° Northeast 474 545 35,000  Level FlightAware ADS-B
Fri 05:17:40 PM -18.5070 -43.5390 29° Northeast 474 545 35,000  Level FlightAware ADS-B
Fri 05:18:14 PM -18.4440 -43.4920 35° Northeast 475 547 35,000  Level FlightAware ADS-B
Fri 05:18:54 PM -18.3760 -43.4370 38° Northeast 476 548 35,000  Level FlightAware ADS-B
Fri 05:19:25 PM -18.3210 -43.3940 37° Northeast 478 550 35,000  Level FlightAware ADS-B
Fri 05:20:05 PM -18.2510 -43.3380 37° Northeast 478 550 35,000  Level FlightAware ADS-B
Fri 05:20:35 PM -18.1980 -43.2950 38° Northeast 477 549 35,000  Level FlightAware ADS-B
Fri 05:21:09 PM -18.1370 -43.2460 37° Northeast 477 549 35,000  Level FlightAware ADS-B
Fri 05:21:49 PM -18.0660 -43.1890 37° Northeast 479 551 35,000  Level FlightAware ADS-B
Fri 05:22:25 PM -18.0040 -43.1400 37° Northeast 479 551 35,000  Level FlightAware ADS-B
Fri 05:22:55 PM -17.9520 -43.0980 38° Northeast 480 552 35,000  Level FlightAware ADS-B
Fri 05:23:29 PM -17.8910 -43.0500 37° Northeast 481 554 35,000  Level FlightAware ADS-B
Fri 05:24:09 PM -17.8210 -42.9940 37° Northeast 483 556 35,000  Level FlightAware ADS-B
Fri 05:24:39 PM -17.7650 -42.9490 37° Northeast 483 556 35,000  Level FlightAware ADS-B
Fri 05:25:14 PM -17.7010 -42.8990 37° Northeast 482 555 35,000  Level FlightAware ADS-B
Fri 05:25:54 PM -17.6350 -42.8460 37° Northeast 479 551 35,000  Level FlightAware ADS-B
Fri 05:26:24 PM -17.5780 -42.8010 37° Northeast 476 548 35,000  Level FlightAware ADS-B
Fri 05:26:59 PM -17.5200 -42.7550 37° Northeast 475 547 35,000  Level FlightAware ADS-B
Fri 05:27:34 PM -17.4550 -42.7040 37° Northeast 474 545 35,000  Level FlightAware ADS-B
Fri 05:28:14 PM -17.3850 -42.6480 37° Northeast 475 547 35,000  Level FlightAware ADS-B
Fri 05:28:45 PM -17.3320 -42.6060 37° Northeast 475 547 35,000  Level FlightAware ADS-B
Fri 05:29:30 PM -17.2540 -42.5440 37° Northeast 476 548 35,000  Level FlightAware ADS-B
Fri 05:30:04 PM -17.1930 -42.4960 37° Northeast 478 550 35,000  Level FlightAware ADS-B
Fri 05:30:44 PM -17.1200 -42.4390 37° Northeast 479 551 35,000  Level FlightAware ADS-B
Fri 05:31:19 PM -17.0610 -42.3910 38° Northeast 479 551 35,000  Level FlightAware ADS-B
Fri 05:31:57 PM -17.0030 -42.3460 37° Northeast 479 551 35,000  Level FlightAware ADS-B
Fri 05:32:34 PM -16.9480 -42.3030 37° Northeast 479 551 35,000  Level FlightAware ADS-B
Fri 05:33:15 PM -16.8580 -42.2320 37° Northeast 476 548 35,000  Level FlightAware ADS-B
Fri 05:33:44 PM -16.8050 -42.1900 37° Northeast 475 547 35,000  Level FlightAware ADS-B
Fri 05:34:29 PM -16.7240 -42.1280 36° Northeast 474 545 35,000  Level FlightAware ADS-B
Fri 05:35:12 PM -16.6650 -42.0840 36° Northeast 474 545 35,000  Level FlightAware ADS-B
Fri 05:35:48 PM -16.6100 -42.0440 35° Northeast 474 545 35,000  Level FlightAware ADS-B
Fri 05:36:24 PM -16.5550 -42.0040 35° Northeast 474 545 35,000  Level FlightAware ADS-B
Fri 05:37:00 PM -16.5000 -41.9640 35° Northeast 474 545 35,000  Level FlightAware ADS-B
Fri 05:37:36 PM -16.4450 -41.9240 35° Northeast 474 545 35,000  Level FlightAware ADS-B
Fri 05:38:15 PM -16.3850 -41.8800 35° Northeast 474 545 35,000  Level FlightAware ADS-B
Fri 05:38:51 PM -16.3300 -41.8400 35° Northeast 474 545 35,000  Level FlightAware ADS-B
Fri 05:39:27 PM -16.2750 -41.8000 35° Northeast 474 545 35,000  Level FlightAware ADS-B
Fri 05:40:01 PM -16.2230 -41.7620 35° Northeast 474 545 35,000  Level FlightAware ADS-B
Fri 05:40:39 PM -16.1650 -41.7200 35° Northeast 474 545 35,000  Level FlightAware ADS-B
Fri 05:41:16 PM -16.1090 -41.6790 35° Northeast 474 545 35,000  Level FlightAware ADS-B
Fri 05:41:52 PM -16.0540 -41.6390 35° Northeast 474 545 35,000  Level FlightAware ADS-B
Fri 05:42:28 PM -15.9990 -41.5990 35° Northeast 474 545 35,000  Level FlightAware ADS-B
Fri 05:43:05 PM -15.9420 -41.5570 35° Northeast 474 545 35,000  Level FlightAware ADS-B
Fri 05:43:41 PM -15.8870 -41.5170 35° Northeast 474 545 35,000  Level FlightAware ADS-B
Fri 05:44:17 PM -15.8330 -41.4770 35° Northeast 474 545 35,000  Level FlightAware ADS-B
Fri 05:46:00 PM -15.6708 -41.3332 40° Northeast  Level Estimated
Fri 05:47:00 PM -15.5762 -41.2495 40° Northeast  Level Estimated
Fri 05:48:00 PM -15.4817 -41.1659 40° Northeast  Level Estimated
Fri 05:49:00 PM -15.3871 -41.0824 40° Northeast  Level Estimated
Fri 05:50:00 PM -15.2924 -40.9990 40° Northeast  Level Estimated
Fri 05:51:00 PM -15.1978 -40.9156 40° Northeast  Level Estimated
Fri 05:52:00 PM -15.1031 -40.8323 40° Northeast  Level Estimated
Fri 05:53:00 PM -15.0084 -40.7491 40° Northeast  Level Estimated
Fri 05:54:00 PM -14.9136 -40.6659 40° Northeast  Level Estimated
Fri 05:55:00 PM -14.8188 -40.5829 40° Northeast  Level Estimated
Fri 05:56:00 PM -14.7240 -40.4999 40° Northeast  Level Estimated
Fri 05:57:00 PM -14.6292 -40.4169 40° Northeast  Level Estimated
Fri 05:58:00 PM -14.5343 -40.3341 40° Northeast  Level Estimated
Fri 05:59:00 PM -14.4394 -40.2513 40° Northeast  Level Estimated
Fri 06:00:00 PM -14.3444 -40.1686 40° Northeast  Level Estimated
Fri 06:01:00 PM -14.2495 -40.0859 40° Northeast  Level Estimated
Fri 06:02:00 PM -14.1545 -40.0034 40° Northeast  Level Estimated
Fri 06:03:00 PM -14.0595 -39.9208 40° Northeast  Level Estimated
Fri 06:04:00 PM -13.9644 -39.8384 40° Northeast  Level Estimated
Fri 06:05:00 PM -13.8694 -39.7560 40° Northeast  Level Estimated
Fri 06:05:47 PM -13.3090 -39.7530 40° Northeast 470 541 35,000  Level FlightAware ADS-B
Fri 06:06:31 PM -13.2360 -39.6860 42° Northeast 469 540 35,000  Level FlightAware ADS-B
Fri 06:07:03 PM -13.1850 -39.6390 42° Northeast 470 541 35,000  Level FlightAware ADS-B
Fri 06:07:40 PM -13.1270 -39.5850 42° Northeast 470 541 35,000  Level FlightAware ADS-B
Fri 06:08:15 PM -13.0680 -39.5310 42° Northeast 469 540 35,000  Level FlightAware ADS-B
Fri 06:08:49 PM -13.0130 -39.4810 42° Northeast 468 539 35,000  Level FlightAware ADS-B
Fri 06:09:24 PM -12.9560 -39.4290 42° Northeast 468 539 35,000  Level FlightAware ADS-B
Fri 06:09:58 PM -12.9020 -39.3790 42° Northeast 468 539 35,000  Level FlightAware ADS-B
Fri 06:10:30 PM -12.8500 -39.3310 42° Northeast 467 537 35,000  Level FlightAware ADS-B
Fri 06:11:10 PM -12.7850 -39.2720 42° Northeast 468 539 35,000  Level FlightAware ADS-B
Fri 06:11:45 PM -12.7290 -39.2210 42° Northeast 468 539 35,000  Level FlightAware ADS-B
Fri 06:12:17 PM -12.6780 -39.1740 42° Northeast 468 539 35,000  Level FlightAware ADS-B
Fri 06:12:53 PM -12.6190 -39.1210 41° Northeast 468 539 35,000  Level FlightAware ADS-B
Fri 06:13:29 PM -12.5620 -39.0680 42° Northeast 466 536 35,000  Level FlightAware ADS-B
Fri 06:14:04 PM -12.5040 -39.0150 42° Northeast 465 535 35,000  Level FlightAware ADS-B
Fri 06:14:40 PM -12.4450 -38.9620 41° Northeast 464 534 35,000  Level FlightAware ADS-B
Fri 06:15:13 PM -12.3940 -38.9150 42° Northeast 464 534 35,000  Level FlightAware ADS-B
Fri 06:15:48 PM -12.3360 -38.8620 42° Northeast 464 534 35,000  Level FlightAware ADS-B
Fri 06:16:24 PM -12.2790 -38.8100 42° Northeast 465 535 35,000  Level FlightAware ADS-B
Fri 06:16:56 PM -12.2280 -38.7640 41° Northeast 465 535 35,000  Level FlightAware ADS-B
Fri 06:17:32 PM -12.1680 -38.7100 41° Northeast 466 536 35,000  Level FlightAware ADS-B
Fri 06:18:10 PM -12.1080 -38.6550 42° Northeast 466 536 35,000  Level FlightAware ADS-B
Fri 06:18:46 PM -12.0510 -38.6020 42° Northeast 466 536 35,000  Level FlightAware ADS-B
Fri 06:19:18 PM -11.9980 -38.5550 41° Northeast 468 539 35,000  Level FlightAware ADS-B
Fri 06:19:54 PM -11.9400 -38.5020 42° Northeast 468 539 35,000  Level FlightAware ADS-B
Fri 06:20:30 PM -11.8810 -38.4480 42° Northeast 468 539 35,000  Level FlightAware ADS-B
Fri 06:21:02 PM -11.8310 -38.4030 41° Northeast 468 539 35,000  Level FlightAware ADS-B
Fri 06:21:37 PM -11.7740 -38.3520 41° Northeast 467 537 35,000  Level FlightAware ADS-B
Fri 06:22:14 PM -11.7130 -38.2970 41° Northeast 466 536 35,000  Level FlightAware ADS-B
Fri 06:22:50 PM -11.6550 -38.2440 42° Northeast 464 534 35,000  Level FlightAware ADS-B
Fri 06:23:22 PM -11.6030 -38.1970 42° Northeast 466 536 35,000  Level FlightAware ADS-B
Fri 06:24:00 PM -11.5420 -38.1420 41° Northeast 465 535 35,000  Level FlightAware ADS-B
Fri 06:24:32 PM -11.4910 -38.0960 41° Northeast 465 535 35,000  Level FlightAware ADS-B
Fri 06:25:08 PM -11.4320 -38.0430 41° Northeast 466 536 35,000  Level FlightAware ADS-B
Fri 06:25:46 PM -11.3710 -37.9880 41° Northeast 466 536 35,000  Level FlightAware ADS-B
Fri 06:26:18 PM -11.3190 -37.9410 42° Northeast 466 536 35,000  Level FlightAware ADS-B
Fri 06:26:54 PM -11.2610 -37.8880 42° Northeast 467 537 35,000  Level FlightAware ADS-B
Fri 06:27:26 PM -11.2090 -37.8410 42° Northeast 468 539 35,000  Level FlightAware ADS-B
Fri 06:28:06 PM -11.1440 -37.7840 41° Northeast 468 539 35,000  Level FlightAware ADS-B
Fri 06:28:38 PM -11.0920 -37.7370 42° Northeast 468 539 35,000  Level FlightAware ADS-B
Fri 06:29:10 PM -11.0390 -37.6890 42° Northeast 468 539 35,000  Level FlightAware ADS-B
Fri 06:29:46 PM -10.9810 -37.6370 41° Northeast 467 537 35,000  Level FlightAware ADS-B
Fri 06:30:21 PM -10.9250 -37.5860 42° Northeast 468 539 35,000  Level FlightAware ADS-B
Fri 06:30:58 PM -10.8640 -37.5310 42° Northeast 469 540 35,000  Level FlightAware ADS-B
Fri 06:31:34 PM -10.8050 -37.4790 41° Northeast 469 540 35,000  Level FlightAware ADS-B
Fri 06:32:06 PM -10.7540 -37.4330 42° Northeast 471 542 35,000  Level FlightAware ADS-B
Fri 06:32:40 PM -10.7010 -37.3860 41° Northeast 471 542 35,000  Level FlightAware ADS-B
Fri 06:33:18 PM -10.6340 -37.3260 41° Northeast 473 544 35,000  Level FlightAware ADS-B
Fri 06:34:04 PM -10.5610 -37.2600 42° Northeast 473 544 35,000  Level FlightAware ADS-B
Fri 06:34:38 PM -10.5060 -37.2110 41° Northeast 473 544 35,000  Level FlightAware ADS-B
Fri 06:35:15 PM -10.4430 -37.1550 41° Northeast 472 543 35,000  Level FlightAware ADS-B
Fri 06:36:00 PM -10.3700 -37.0900 41° Northeast 472 543 35,000  Level FlightAware ADS-B
Fri 06:36:30 PM -10.3190 -37.0440 42° Northeast 471 542 35,000  Level FlightAware ADS-B
Fri 06:37:09 PM -10.2650 -36.9960 41° Northeast 471 542 35,000  Level FlightAware ADS-B
Fri 06:37:42 PM -10.2010 -36.9390 41° Northeast 471 542 35,000  Level FlightAware ADS-B
Fri 06:38:19 PM -10.1480 -36.8920 41° Northeast 471 542 35,000  Level FlightAware ADS-B
Fri 06:38:55 PM -10.0970 -36.8470 41° Northeast 471 542 35,000  Level FlightAware ADS-B
Fri 06:39:32 PM -10.0460 -36.8020 41° Northeast 471 542 35,000  Level FlightAware ADS-B
Fri 06:40:08 PM -9.9950 -36.7570 41° Northeast 471 542 35,000  Level FlightAware ADS-B
Fri 06:40:44 PM -9.9450 -36.7130 41° Northeast 471 542 35,000  Level FlightAware ADS-B
Fri 06:41:21 PM -9.8930 -36.6670 41° Northeast 471 542 35,000  Level FlightAware ADS-B
Fri 06:41:57 PM -9.8430 -36.6230 41° Northeast 471 542 35,000  Level FlightAware ADS-B
Fri 06:42:33 PM -9.7930 -36.5780 42° Northeast 471 542 35,000  Level FlightAware ADS-B
Fri 06:43:10 PM -9.7410 -36.5330 40° Northeast 471 542 35,000  Level FlightAware ADS-B
Fri 06:43:44 PM -9.6930 -36.4910 41° Northeast 471 542 35,000  Level FlightAware ADS-B
Fri 06:44:20 PM -9.6430 -36.4470 41° Northeast 471 542 35,000  Level FlightAware ADS-B
Fri 06:44:57 PM -9.5910 -36.4010 41° Northeast 471 542 35,000  Level FlightAware ADS-B
Fri 06:45:33 PM -9.5410 -36.3570 41° Northeast 471 542 35,000  Level FlightAware ADS-B
Fri 06:46:09 PM -9.4910 -36.3120 42° Northeast 471 542 35,000  Level FlightAware ADS-B
Fri 06:46:45 PM -9.4400 -36.2680 40° Northeast 471 542 35,000 -3,760 Level FlightAware ADS-B
Fri 06:47:24 PM -9.2460 -36.0910 42° Northeast 449 517 30,300 -4,886 Descending FlightAware ADS-B
Fri 06:47:55 PM -9.2010 -36.0510 41° Northeast 442 509 29,300 -2,053 Descending FlightAware ADS-B
Fri 06:48:40 PM -9.1280 -35.9860 41° Northeast 432 497 27,700 -2,025 Descending FlightAware ADS-B
Fri 06:49:15 PM -9.0780 -35.9420 41° Northeast 424 488 26,600 -1,974 Descending FlightAware ADS-B
Fri 06:49:56 PM -9.0170 -35.8880 41° Northeast 415 478 25,200 -2,605 Descending FlightAware ADS-B
Fri 06:50:31 PM -8.9640 -35.8450 39° Northeast 426 490 23,300 -2,914 Descending FlightAware ADS-B
Fri 06:51:06 PM -8.9100 -35.8040 37° Northeast 425 489 21,800 -2,314 Descending FlightAware ADS-B
Fri 06:51:41 PM -8.8550 -35.7610 38° Northeast 410 472 20,600 -2,057 Descending FlightAware ADS-B
Fri 06:52:16 PM -8.8030 -35.7200 38° Northeast 399 459 19,400 -1,800 Descending FlightAware ADS-B
Fri 06:52:51 PM -8.7560 -35.6830 38° Northeast 385 443 18,500 -1,714 Descending FlightAware ADS-B
Fri 06:53:26 PM -8.7060 -35.6430 38° Northeast 375 432 17,400 -1,714 Descending FlightAware ADS-B
Fri 06:54:01 PM -8.6620 -35.6080 38° Northeast 365 420 16,500 -1,538 Descending FlightAware ADS-B
Fri 06:54:44 PM -8.6060 -35.5650 37° Northeast 349 402 15,400 -1,600 Descending FlightAware ADS-B
Fri 06:55:16 PM -8.5640 -35.5310 39° Northeast 341 392 14,500 -1,569 Descending FlightAware ADS-B
Fri 06:55:49 PM -8.5240 -35.4990 38° Northeast 332 382 13,700 -1,479 Descending FlightAware ADS-B
Fri 06:56:29 PM -8.4770 -35.4620 38° Northeast 328 377 12,700 -1,644 Descending FlightAware ADS-B
Fri 06:57:02 PM -8.4340 -35.4290 37° Northeast 326 375 11,700 -1,600 Descending FlightAware ADS-B
Fri 06:57:44 PM -8.3830 -35.3890 38° Northeast 323 372 10,700 -1,200 Descending FlightAware ADS-B
Fri 06:58:17 PM -8.3470 -35.3600 39° Northeast 312 359 10,200 -842 Descending FlightAware ADS-B
Fri 06:58:41 PM -8.3180 -35.3370 38° Northeast 299 344 9,900 -900 Descending FlightAware ADS-B
Fri 06:58:57 PM -8.3020 -35.3250 37° Northeast 294 338 9,600 -1,395 Descending FlightAware ADS-B
Fri 06:59:24 PM -8.2750 -35.3040 38° Northeast 294 338 8,900 -1,592 Descending FlightAware ADS-B
Fri 06:59:46 PM -8.2500 -35.2840 38° Northeast 294 338 8,300 -1,579 Descending FlightAware ADS-B
Fri 07:00:02 PM -8.2340 -35.2710 39° Northeast 291 335 7,900 -1,610 Descending FlightAware ADS-B
Fri 07:00:27 PM -8.2050 -35.2480 38° Northeast 287 330 7,200 -1,592 Descending FlightAware ADS-B
Fri 07:00:51 PM -8.1800 -35.2290 37° Northeast 283 326 6,600 -1,350 Descending FlightAware ADS-B
Fri 07:01:07 PM -8.1650 -35.2170 38° Northeast 280 322 6,300 -1,297 Descending FlightAware ADS-B
Fri 07:01:28 PM -8.1440 -35.2010 37° Northeast 278 320 5,800 -1,294 Descending FlightAware ADS-B
Fri 07:01:58 PM -8.1160 -35.1790 38° Northeast 275 316 5,200 -1,435 Descending FlightAware ADS-B
Fri 07:02:14 PM -8.0950 -35.1620 39° Northeast 273 314 4,700 -1,667 Descending FlightAware ADS-B
Fri 07:02:34 PM -8.0750 -35.1460 38° Northeast 271 312 4,200 -906 Descending FlightAware ADS-B
Fri 07:03:07 PM -8.0450 -35.1220 38° Northeast 250 288 3,900 -612 Descending FlightAware ADS-B
Fri 07:03:23 PM -8.0300 -35.1110 36° Northeast 240 276 3,700 -585 Descending FlightAware ADS-B
Fri 07:03:48 PM -8.0100 -35.0950 38° Northeast 229 264 3,500 -367 Descending FlightAware ADS-B
Fri 07:04:12 PM -7.9900 -35.0790 38° Northeast 230 265 3,400 -188 Descending FlightAware ADS-B
Fri 07:04:20 PM -7.9850 -35.0720 54° Northeast 227 261 3,400  Level FlightAware ADS-B
Fri 07:04:28 PM -7.9820 -35.0650 67° East 222 255 3,400 -375 Level FlightAware ADS-B
Fri 07:04:36 PM -7.9790 -35.0560 71° East 217 250 3,300 -563 Descending FlightAware ADS-B
Fri 07:05:00 PM -7.9720 -35.0330 73° East 215 247 3,100 -450 Descending FlightAware ADS-B
Fri 07:05:16 PM -7.9670 -35.0180 71° East 208 239 3,000 -600 Descending FlightAware ADS-B
Fri 07:05:40 PM -7.9600 -34.9970 71° East 198 228 2,700 -500 Descending FlightAware ADS-B
Fri 07:06:04 PM -7.9690 -34.9780 116° Southeast 181 208 2,600 -146 Descending FlightAware ADS-B
Fri 07:06:21 PM -7.9810 -34.9720 154° Southeast 179 206 2,600 -439 Level FlightAware ADS-B
Fri 07:06:45 PM -7.9980 -34.9660 161° South 166 191 2,300 -875 Descending FlightAware ADS-B
Fri 07:07:09 PM -8.0150 -34.9600 161° South 146 168 1,900 -878 Descending FlightAware ADS-B
Fri 07:07:26 PM -8.0250 -34.9570 163° South 139 160 1,700 -667 Descending FlightAware ADS-B
Fri 07:07:45 PM -8.0370 -34.9530 162° South 135 155 1,500 -698 Descending FlightAware ADS-B
Fri 07:08:09 PM -8.0520 -34.9480 162° South 134 154 1,200 -679 Descending FlightAware ADS-B
Fri 07:08:38 PM -8.0670 -34.9430 162° South 135 155 900 -511 Descending FlightAware ADS-B
Fri 07:08:56 PM -8.0750 -34.9400 160° South 134 154 800 -714 Descending FlightAware ADS-B
Fri 07:09:20 PM -8.0910 -34.9350 163° South 134 154 400 -900 Descending FlightAware ADS-B
Fri 07:09:36 PM -8.1030 -34.9310 162° South 133 153 200 -750 Descending FlightAware ADS-B
Fri 07:09:57 PM -8.1150 -34.9270 162° South 134 154 -571 Descending FlightAware ADS-B
Fri 07:10:21 PM -8.1250 -34.9240 163° South 133 153  Level FlightAware ADS-B
Fri 07:10:47 PM -8.1180 -34.9120 59° Northeast 133 153  Level FlightAware ADS-B
Fri 07:11:02 PM -8.1320 -34.9210 212° Southwest 133 153  Level FlightAware ADS-B
Fri 07:11:27 PM -8.1240 -34.9110 51° Northeast 133 153  Level FlightAware ADS-B
Fri 07:14:00 PM -8.1268 -34.9230 257° West  Level Estimated
Fri 07:15:00 PM -8.1268 -34.9230 166° South  Level Estimated

Login

Don't have an account? Register now (free) for customized features, flight alerts, and more!